Time;durP1;ratioP1;P1;durP2;ratioP2;P2;SDS_P1;SDS_P2;PMS_P1;PMS_P2;Temp;Humidity;BMP_temperature;BMP_pressure;BME280_temperature;BME280_humidity;BME280_pressure;Samples;Min_cycle;Max_cycle;Signal;HPM_P1;HPM_P2
2021/03/20 00:01:24;;;;;;;6.22;1.70;;;0.30;99.10;;;;;;5043628;28;20506;-73
2021/03/20 00:03:50;;;;;;;6.35;1.33;;;0.30;98.70;;;;;;5048633;28;20595;-73
2021/03/20 00:06:20;;;;;;;2.83;1.35;;;0.30;98.90;;;;;;5041453;28;20164;-73
2021/03/20 00:08:47;;;;;;;2.30;1.30;;;0.30;99.10;;;;;;5037858;28;20056;-73
2021/03/20 00:11:13;;;;;;;6.60;2.10;;;0.40;98.80;;;;;;5042826;28;20617;-74
2021/03/20 00:13:39;;;;;;;2.85;1.65;;;0.50;98.40;;;;;;5047449;28;20125;-73
2021/03/20 00:16:04;;;;;;;5.85;1.95;;;0.50;98.20;;;;;;5046648;28;20099;-74
2021/03/20 00:18:30;;;;;;;1.92;1.52;;;0.50;97.80;;;;;;5049148;28;20033;-73
2021/03/20 00:20:56;;;;;;;4.85;1.75;;;0.50;98.60;;;;;;5047328;28;20399;-74
2021/03/20 00:23:22;;;;;;;4.38;1.50;;;0.40;98.80;;;;;;5035642;28;20022;-74
2021/03/20 00:25:47;;;;;;;2.10;1.23;;;0.40;99.30;;;;;;5046949;28;20020;-73
2021/03/20 00:28:21;;;;;;;2.20;1.40;;;0.50;98.30;;;;;;5035909;28;20553;-74
2021/03/20 00:30:48;;;;;;;4.35;1.27;;;0.50;98.10;;;;;;5043831;28;20039;-73
2021/03/20 00:33:14;;;;;;;4.00;1.65;;;0.50;98.80;;;;;;5041728;28;20047;-74
2021/03/20 00:35:40;;;;;;;2.33;1.20;;;0.50;98.30;;;;;;5045715;28;20029;-74
2021/03/20 00:38:05;;;;;;;3.17;1.45;;;0.50;99.00;;;;;;5052478;28;20419;-74
2021/03/20 00:40:31;;;;;;;5.35;1.48;;;0.50;98.60;;;;;;5046636;28;20025;-73
2021/03/20 00:42:58;;;;;;;4.22;1.35;;;0.50;98.50;;;;;;5040911;28;20029;-73
2021/03/20 00:45:26;;;;;;;3.17;1.50;;;0.50;98.00;;;;;;5044288;28;20021;-73
2021/03/20 00:47:52;;;;;;;2.75;1.05;;;0.60;98.20;;;;;;5045723;28;20029;-73
2021/03/20 00:50:24;;;;;;;2.03;1.05;;;0.60;98.20;;;;;;5042065;28;20111;-73
2021/03/20 00:52:50;;;;;;;1.30;0.80;;;0.60;98.50;;;;;;5042091;28;20440;-73
2021/03/20 00:55:16;;;;;;;3.92;1.52;;;0.60;97.90;;;;;;5042981;28;20113;-73
2021/03/20 00:57:42;;;;;;;1.88;0.90;;;0.60;98.40;;;;;;5047438;28;20120;-73
2021/03/20 01:00:16;;;;;;;2.55;1.10;;;0.60;98.50;;;;;;5046759;28;20108;-73
2021/03/20 01:02:42;;;;;;;5.47;1.02;;;0.70;98.40;;;;;;5047284;28;20039;-73
2021/03/20 01:05:09;;;;;;;3.45;1.35;;;0.60;98.20;;;;;;5047580;28;20025;-73
2021/03/20 01:07:37;;;;;;;5.63;1.48;;;0.70;98.20;;;;;;5034038;28;20037;-73
2021/03/20 01:10:06;;;;;;;2.80;1.00;;;0.70;99.00;;;;;;5050790;28;20033;-73
2021/03/20 01:12:31;;;;;;;1.90;0.95;;;0.70;98.10;;;;;;5044856;28;20037;-74
2021/03/20 01:14:57;;;;;;;5.68;1.35;;;0.80;97.90;;;;;;5050023;28;20021;-75
2021/03/20 01:17:22;;;;;;;5.20;1.25;;;0.70;98.40;;;;;;5045882;28;20111;-74
2021/03/20 01:19:48;;;;;;;3.10;1.00;;;0.70;98.40;;;;;;5040398;28;20033;-74
2021/03/20 01:22:13;;;;;;;7.53;1.20;;;0.70;98.80;;;;;;5048237;28;20021;-74
2021/03/20 01:24:39;;;;;;;4.07;1.05;;;0.70;98.60;;;;;;5042071;28;20025;-74
2021/03/20 01:27:05;;;;;;;2.00;1.00;;;0.70;98.40;;;;;;5046818;28;20040;-74
2021/03/20 01:29:30;;;;;;;2.05;1.20;;;0.70;98.90;;;;;;5021129;28;20052;-74
2021/03/20 01:31:56;;;;;;;4.05;1.15;;;0.50;98.90;;;;;;5047455;28;20037;-74
2021/03/20 01:34:22;;;;;;;3.65;1.00;;;0.60;99.00;;;;;;5048821;28;20373;-74
2021/03/20 01:36:47;;;;;;;1.73;1.08;;;0.60;99.40;;;;;;5050002;28;20037;-74
2021/03/20 01:39:13;;;;;;;1.88;1.10;;;0.60;99.40;;;;;;5048030;28;20029;-74
2021/03/20 01:41:42;;;;;;;1.95;0.80;;;0.70;99.50;;;;;;5030907;28;20071;-74
2021/03/20 01:44:13;;;;;;;8.98;1.52;;;0.70;99.60;;;;;;5039321;28;20553;-74
2021/03/20 01:46:50;;;;;;;;;;;0.70;98.90;;;;;;5044619;28;20405;-75
2021/03/20 01:49:30;;;;;;;1.80;0.80;;;0.80;98.30;;;;;;5048330;28;19909;-74
2021/03/20 01:51:58;;;;;;;3.23;1.13;;;0.80;98.80;;;;;;5012104;28;535276;-74
2021/03/20 01:54:27;;;;;;;5.50;1.33;;;0.80;98.40;;;;;;5041263;28;20033;-74
2021/03/20 01:56:53;;;;;;;3.17;1.00;;;0.70;99.10;;;;;;5042651;28;20033;-74
2021/03/20 01:59:19;;;;;;;1.23;1.10;;;0.70;98.70;;;;;;5059033;28;20029;-74
2021/03/20 02:01:45;;;;;;;2.55;1.20;;;0.70;99.30;;;;;;5048221;28;20452;-74
2021/03/20 02:04:11;;;;;;;2.38;1.10;;;0.70;99.20;;;;;;5050288;28;20108;-74
2021/03/20 02:06:37;;;;;;;3.55;0.90;;;0.70;99.30;;;;;;5047496;28;20112;-74
2021/03/20 02:09:07;;;;;;;2.58;0.93;;;0.80;98.40;;;;;;5042563;28;20543;-74
2021/03/20 02:11:54;;;;;;;4.53;1.33;;;0.80;99.10;;;;;;5049120;28;20040;-74
2021/03/20 02:14:51;;;;;;;3.50;1.10;;;0.80;99.60;;;;;;5043591;28;20041;-74
2021/03/20 02:17:41;;;;;;;3.20;1.10;;;0.80;99.30;;;;;;5040401;28;20404;-74
2021/03/20 02:20:35;;;;;;;1.73;1.15;;;0.80;99.10;;;;;;5050260;28;20029;-74
2021/03/20 02:23:37;;;;;;;1.52;1.00;;;0.80;99.30;;;;;;5045250;28;20029;-74
2021/03/20 02:26:42;;;;;;;5.10;1.23;;;0.70;99.30;;;;;;5048036;28;20033;-74
2021/03/20 02:29:37;;;;;;;3.75;1.10;;;0.80;99.90;;;;;;5049501;28;20556;-75
2021/03/20 02:32:35;;;;;;;4.80;1.35;;;0.80;99.90;;;;;;5042937;28;20392;-74
2021/03/20 02:35:05;;;;;;;3.38;1.08;;;0.80;99.60;;;;;;5026561;28;20057;-74
2021/03/20 02:37:47;;;;;;;3.35;1.55;;;0.90;99.30;;;;;;5042384;28;20037;-74
2021/03/20 02:40:24;;;;;;;3.20;1.40;;;0.90;99.20;;;;;;5048513;28;20119;-74
2021/03/20 02:43:09;;;;;;;1.73;1.30;;;0.90;99.30;;;;;;5040079;28;20032;-74
2021/03/20 02:45:53;;;;;;;3.85;1.05;;;0.90;99.70;;;;;;5042712;28;20076;-74
2021/03/20 02:48:24;;;;;;;2.13;1.05;;;0.80;99.90;;;;;;5048077;28;20107;-74
2021/03/20 02:51:02;;;;;;;2.10;1.35;;;0.80;99.90;;;;;;5053127;28;20053;-74
2021/03/20 02:53:38;;;;;;;2.55;1.13;;;0.70;99.90;;;;;;5067610;28;20107;-74
2021/03/20 02:56:08;;;;;;;1.70;1.05;;;0.70;99.90;;;;;;5063619;28;20111;-74
2021/03/20 02:58:47;;;;;;;0.80;0.77;;;0.80;99.90;;;;;;5071587;28;20032;-74
2021/03/20 03:01:18;;;;;;;2.65;1.48;;;0.70;99.90;;;;;;5054754;28;20029;-75
2021/03/20 03:03:46;;;;;;;3.08;1.17;;;0.80;99.90;;;;;;5061974;28;20483;-74
2021/03/20 03:06:30;;;;;;;4.13;1.38;;;0.80;99.90;;;;;;5067599;28;20494;-74
2021/03/20 03:09:02;;;;;;;2.33;1.08;;;0.80;99.70;;;;;;5069055;28;20041;-75
2021/03/20 03:11:42;;;;;;;3.85;1.08;;;0.80;99.90;;;;;;5063232;28;20098;-74
2021/03/20 03:14:14;;;;;;;2.15;1.20;;;0.90;99.90;;;;;;5070241;28;20028;-74
2021/03/20 03:16:46;;;;;;;2.55;1.15;;;1.00;99.60;;;;;;5058328;28;20601;-74
2021/03/20 03:19:28;;;;;;;4.88;1.08;;;0.90;99.90;;;;;;5069029;28;20124;-74
2021/03/20 03:21:57;;;;;;;2.22;1.15;;;0.90;99.90;;;;;;5061992;28;20039;-74
2021/03/20 03:24:25;;;;;;;5.43;1.55;;;0.80;99.90;;;;;;5065268;28;20028;-74
2021/03/20 03:26:55;;;;;;;4.78;1.20;;;0.80;99.90;;;;;;5065211;28;20033;-75
2021/03/20 03:29:25;;;;;;;2.33;1.20;;;0.80;99.90;;;;;;5063979;28;20047;-74
2021/03/20 03:32:14;;;;;;;5.65;1.15;;;0.80;99.40;;;;;;5060104;28;20058;-74
2021/03/20 03:34:47;;;;;;;3.00;1.20;;;0.80;99.90;;;;;;5066906;28;20024;-74
2021/03/20 03:37:35;;;;;;;2.70;1.52;;;0.80;99.80;;;;;;5062559;28;20036;-74
2021/03/20 03:40:08;;;;;;;1.42;1.00;;;0.70;99.90;;;;;;5065144;28;20120;-75
2021/03/20 03:42:33;;;;;;;2.55;1.15;;;0.90;99.90;;;;;;5066749;28;20113;-74
2021/03/20 03:44:59;;;;;;;3.80;1.52;;;0.80;99.90;;;;;;5063291;28;20052;-74
2021/03/20 03:47:29;;;;;;;2.42;1.10;;;0.80;99.90;;;;;;5072318;28;20036;-74
2021/03/20 03:50:01;;;;;;;2.28;1.30;;;0.80;99.90;;;;;;5069930;28;20097;-75
2021/03/20 03:52:26;;;;;;;1.48;1.00;;;0.80;99.90;;;;;;5068205;28;20054;-74
2021/03/20 03:54:52;;;;;;;3.20;1.65;;;0.70;99.90;;;;;;5049312;28;20032;-75
2021/03/20 03:57:32;;;;;;;2.80;1.25;;;0.80;99.90;;;;;;5062001;28;20081;-75
2021/03/20 04:00:12;;;;;;;1.77;1.02;;;0.80;99.90;;;;;;5064127;28;20038;-74
2021/03/20 04:03:11;;;;;;;1.92;1.30;;;0.80;99.90;;;;;;5067560;28;20472;-74
2021/03/20 04:06:17;;;;;;;4.40;1.25;;;0.80;99.50;;;;;;5063799;28;20032;-74
2021/03/20 04:09:01;;;;;;;2.95;1.30;;;0.80;99.80;;;;;;5065936;28;20086;-74
2021/03/20 04:11:36;;;;;;;2.90;1.30;;;0.80;99.70;;;;;;5065446;28;20505;-74
2021/03/20 04:14:24;;;;;;;3.63;1.10;;;0.80;99.90;;;;;;5069135;28;20060;-74
2021/03/20 04:17:01;;;;;;;4.93;1.40;;;0.80;99.90;;;;;;5060832;28;20056;-74
2021/03/20 04:19:55;;;;;;;3.47;0.98;;;0.80;99.80;;;;;;5057927;28;20029;-74
2021/03/20 04:22:42;;;;;;;3.45;1.33;;;0.80;99.90;;;;;;5065258;28;20028;-75
2021/03/20 04:25:23;;;;;;;3.03;1.40;;;0.90;99.90;;;;;;5066792;28;20035;-74
2021/03/20 04:27:56;;;;;;;5.63;1.58;;;0.90;99.00;;;;;;5067199;28;20032;-74
2021/03/20 04:30:25;;;;;;;3.80;1.63;;;0.90;98.90;;;;;;5064227;28;20111;-74
2021/03/20 04:33:06;;;;;;;7.25;2.17;;;0.90;99.50;;;;;;5068040;28;20040;-74
2021/03/20 04:35:38;;;;;;;5.43;1.90;;;0.90;99.50;;;;;;5059944;28;20403;-75
2021/03/20 04:38:06;;;;;;;5.53;1.35;;;1.00;98.90;;;;;;5062967;28;20048;-74
2021/03/20 04:40:40;;;;;;;3.75;1.58;;;1.00;98.80;;;;;;5064395;28;20024;-75
2021/03/20 04:43:09;;;;;;;1.27;1.17;;;1.10;98.00;;;;;;5063692;28;20024;-74
2021/03/20 04:45:39;;;;;;;2.60;1.15;;;1.00;97.90;;;;;;5057056;28;20052;-74
2021/03/20 04:48:16;;;;;;;3.58;1.45;;;1.00;98.60;;;;;;5068438;28;20478;-75
2021/03/20 04:50:44;;;;;;;2.97;1.35;;;1.00;98.60;;;;;;5064453;28;20056;-74
2021/03/20 04:53:13;;;;;;;2.10;1.30;;;0.90;98.50;;;;;;5068217;28;20028;-74
2021/03/20 04:55:39;;;;;;;1.88;1.20;;;1.00;98.70;;;;;;5062195;28;20596;-74
2021/03/20 04:58:15;;;;;;;1.73;1.00;;;1.00;98.90;;;;;;5065143;28;20028;-75
2021/03/20 05:00:57;;;;;;;4.38;1.20;;;0.90;99.30;;;;;;5067509;28;20101;-74
2021/03/20 05:03:34;;;;;;;5.85;1.85;;;0.90;99.10;;;;;;5056936;28;20021;-73
2021/03/20 05:06:04;;;;;;;2.78;1.10;;;1.00;99.00;;;;;;5059841;28;20028;-73
2021/03/20 05:08:39;;;;;;;1.98;1.10;;;0.90;99.40;;;;;;5064143;28;20032;-73
2021/03/20 05:11:14;;;;;;;1.90;1.17;;;1.00;99.30;;;;;;5065882;28;20020;-73
2021/03/20 05:13:46;;;;;;;2.05;1.13;;;1.10;97.50;;;;;;5066944;28;20537;-73
2021/03/20 05:16:17;;;;;;;1.10;1.00;;;1.20;97.10;;;;;;5064928;28;20025;-74
2021/03/20 05:18:48;;;;;;;3.72;1.17;;;1.10;97.40;;;;;;5069075;28;20033;-73
2021/03/20 05:21:35;;;;;;;3.63;1.00;;;1.10;97.40;;;;;;5062990;28;20033;-75
2021/03/20 05:24:02;;;;;;;4.35;1.20;;;1.10;97.60;;;;;;5057591;28;20039;-73
2021/03/20 05:26:33;;;;;;;5.70;1.48;;;1.00;98.30;;;;;;5060835;28;20499;-75
2021/03/20 05:28:59;;;;;;;3.33;0.90;;;1.10;98.20;;;;;;5067359;28;20031;-74
2021/03/20 05:31:27;;;;;;;3.15;1.23;;;1.10;97.30;;;;;;5061963;28;20403;-74
2021/03/20 05:33:53;;;;;;;1.30;0.90;;;1.20;97.20;;;;;;5066653;28;20067;-73
2021/03/20 05:36:18;;;;;;;3.80;0.90;;;1.20;97.10;;;;;;5067158;28;20048;-74
2021/03/20 05:38:46;;;;;;;1.65;1.08;;;1.20;97.90;;;;;;5057071;28;20032;-73
2021/03/20 05:41:26;;;;;;;1.60;1.00;;;1.20;98.30;;;;;;5068603;28;20033;-74
2021/03/20 05:44:15;;;;;;;2.38;1.10;;;1.20;98.00;;;;;;5065557;28;20021;-74
2021/03/20 05:46:56;;;;;;;1.85;0.75;;;1.30;97.40;;;;;;5066177;28;20051;-74
2021/03/20 05:49:33;;;;;;;3.53;1.13;;;1.30;97.90;;;;;;5070178;28;20013;-73
2021/03/20 05:52:27;;;;;;;4.10;1.30;;;1.30;97.70;;;;;;5062326;28;20036;-74
2021/03/20 05:55:17;;;;;;;1.58;0.90;;;1.40;98.00;;;;;;5067179;28;20498;-74
2021/03/20 05:58:16;;;;;;;1.58;1.17;;;1.40;97.50;;;;;;5061356;28;20036;-73
2021/03/20 06:00:47;;;;;;;6.35;1.48;;;1.40;97.60;;;;;;5069582;28;20021;-74
2021/03/20 06:03:38;;;;;;;2.60;1.00;;;1.50;97.00;;;;;;5063814;28;20375;-74
2021/03/20 06:06:28;;;;;;;5.65;1.17;;;1.60;96.00;;;;;;5070517;28;20119;-74
2021/03/20 06:09:14;;;;;;;1.83;1.13;;;1.60;95.90;;;;;;5062647;28;20040;-73
2021/03/20 06:12:07;;;;;;;1.90;1.08;;;1.60;96.70;;;;;;5060109;28;20174;-73
2021/03/20 06:14:44;;;;;;;4.20;1.33;;;1.60;96.50;;;;;;5070766;28;20039;-73
2021/03/20 06:17:40;;;;;;;2.72;1.10;;;1.80;94.80;;;;;;5061671;28;20047;-73
2021/03/20 06:20:42;;;;;;;1.73;0.80;;;1.80;94.90;;;;;;5062949;28;20491;-75
2021/03/20 06:23:17;;;;;;;;;;;1.90;94.80;;;;;;5048480;28;20063;-73
2021/03/20 06:26:10;;;;;;;4.90;1.25;;;1.90;93.80;;;;;;5066296;28;20378;-75
2021/03/20 06:29:01;;;;;;;3.30;1.20;;;2.00;94.00;;;;;;5070177;28;20032;-75
2021/03/20 06:31:39;;;;;;;1.90;1.15;;;2.10;93.50;;;;;;5053486;28;20116;-76
2021/03/20 06:34:26;;;;;;;4.97;1.10;;;2.10;93.30;;;;;;5044316;28;20090;-77
2021/03/20 06:37:03;;;;;;;2.95;1.17;;;2.00;93.40;;;;;;5060164;28;20028;-76
2021/03/20 06:39:36;;;;;;;3.75;1.10;;;2.00;94.00;;;;;;5070142;28;20025;-76
2021/03/20 06:42:33;;;;;;;2.10;0.80;;;2.00;93.40;;;;;;5062701;28;20028;-78
2021/03/20 06:45:33;;;;;;;3.20;1.13;;;2.10;93.50;;;;;;5069529;28;20029;-76
2021/03/20 06:48:11;;;;;;;1.83;1.13;;;2.20;92.90;;;;;;5072846;28;20043;-77
2021/03/20 06:50:45;;;;;;;2.50;1.20;;;2.30;92.40;;;;;;5066450;28;20048;-76
2021/03/20 06:53:13;;;;;;;1.88;1.00;;;2.30;92.00;;;;;;5069239;28;20062;-76
2021/03/20 06:55:50;;;;;;;2.45;0.88;;;2.30;91.60;;;;;;5067204;28;20059;-77
2021/03/20 06:58:29;;;;;;;2.33;1.10;;;2.20;90.60;;;;;;5061490;28;20037;-73
2021/03/20 07:00:58;;;;;;;2.30;0.95;;;2.20;90.60;;;;;;5053082;28;20038;-72
2021/03/20 07:03:53;;;;;;;1.33;1.13;;;2.20;90.40;;;;;;5056918;28;20116;-72
2021/03/20 07:06:43;;;;;;;4.03;0.93;;;2.10;90.90;;;;;;5070167;28;20028;-73
2021/03/20 07:09:09;;;;;;;2.03;1.05;;;2.00;90.30;;;;;;5059367;28;20254;-73
2021/03/20 07:11:37;;;;;;;2.00;1.10;;;2.10;90.40;;;;;;5058903;28;20028;-73
2021/03/20 07:14:09;;;;;;;2.63;1.40;;;2.10;90.50;;;;;;5063785;28;20422;-72
2021/03/20 07:16:58;;;;;;;2.85;1.35;;;2.10;89.10;;;;;;5066532;28;20085;-73
2021/03/20 07:19:25;;;;;;;1.95;1.05;;;2.20;88.40;;;;;;5066509;28;20024;-72
2021/03/20 07:21:56;;;;;;;7.18;1.15;;;2.30;87.50;;;;;;5065360;28;20032;-73
2021/03/20 07:24:37;;;;;;;3.00;1.38;;;2.30;85.90;;;;;;5067040;28;20027;-73
2021/03/20 07:27:14;;;;;;;3.75;1.38;;;2.30;87.40;;;;;;5067035;28;20131;-73
2021/03/20 07:29:55;;;;;;;3.28;0.75;;;2.30;86.20;;;;;;5059458;28;20024;-72
2021/03/20 07:32:30;;;;;;;3.83;1.30;;;2.30;85.90;;;;;;5066840;28;20032;-73
2021/03/20 07:35:15;;;;;;;1.70;0.85;;;2.40;85.20;;;;;;5067439;28;20059;-72
2021/03/20 07:37:40;;;;;;;3.83;1.27;;;2.50;83.60;;;;;;5065602;28;20150;-72
2021/03/20 07:40:24;;;;;;;1.73;1.20;;;2.60;81.30;;;;;;5063845;28;20112;-73
2021/03/20 07:42:50;;;;;;;3.83;1.75;;;2.60;82.30;;;;;;5064196;28;20073;-73
2021/03/20 07:45:18;;;;;;;3.88;1.00;;;2.60;81.40;;;;;;5064780;28;20020;-73
2021/03/20 07:48:05;;;;;;;3.03;1.40;;;2.60;81.40;;;;;;5056509;28;20037;-73
2021/03/20 07:50:40;;;;;;;2.72;1.10;;;2.80;80.20;;;;;;5064840;28;20028;-72
2021/03/20 07:53:15;;;;;;;2.80;1.27;;;2.90;80.20;;;;;;5064527;28;20028;-73
2021/03/20 07:55:52;;;;;;;2.45;1.40;;;3.00;79.90;;;;;;5065007;28;20045;-73
2021/03/20 07:58:33;;;;;;;4.07;1.75;;;3.10;77.90;;;;;;5065695;28;20032;-73
2021/03/20 08:01:03;;;;;;;2.38;1.35;;;3.20;77.90;;;;;;5067116;28;20028;-72
2021/03/20 08:03:45;;;;;;;1.55;0.98;;;3.30;76.20;;;;;;5062845;28;20045;-73
2021/03/20 08:06:14;;;;;;;5.25;1.58;;;3.30;74.70;;;;;;5065526;28;20020;-73
2021/03/20 08:08:40;;;;;;;1.30;0.88;;;3.40;74.10;;;;;;5063960;28;20033;-73
2021/03/20 08:11:26;;;;;;;1.50;0.90;;;3.60;72.80;;;;;;5066440;28;20055;-73
2021/03/20 08:14:01;;;;;;;2.10;1.20;;;3.70;72.10;;;;;;5066591;28;20036;-73
2021/03/20 08:16:27;;;;;;;1.40;1.00;;;3.80;70.70;;;;;;5063574;28;20127;-72
2021/03/20 08:18:55;;;;;;;3.60;1.38;;;3.70;69.10;;;;;;5064016;28;20165;-73
2021/03/20 08:21:26;;;;;;;5.57;0.93;;;3.80;67.40;;;;;;5063419;28;20013;-73
2021/03/20 08:24:29;;;;;;;1.10;0.85;;;3.80;67.10;;;;;;5061514;28;20479;-73
2021/03/20 08:27:16;;;;;;;2.20;0.93;;;3.90;65.90;;;;;;5053475;28;20041;-72
2021/03/20 08:30:01;;;;;;;1.60;0.98;;;3.80;65.20;;;;;;5063027;28;20131;-72
2021/03/20 08:32:52;;;;;;;3.05;0.98;;;3.80;66.70;;;;;;5064945;28;20040;-72
2021/03/20 08:35:27;;;;;;;3.72;0.50;;;3.90;66.60;;;;;;5059992;28;20750;-73
2021/03/20 08:38:17;;;;;;;5.00;1.23;;;4.00;64.40;;;;;;5055171;28;20445;-73
2021/03/20 08:40:55;;;;;;;1.70;0.90;;;4.10;64.30;;;;;;5051063;28;20439;-80
2021/03/20 08:44:06;;;;;;;2.88;0.80;;;4.20;64.30;;;;;;5058533;28;20085;-72
2021/03/20 08:47:01;;;;;;;1.30;0.88;;;4.40;63.70;;;;;;5055275;28;20021;-73
2021/03/20 08:50:11;;;;;;;2.38;0.95;;;4.60;62.90;;;;;;5052288;28;20052;-70
2021/03/20 08:52:49;;;;;;;3.85;1.38;;;4.70;61.40;;;;;;5051572;28;20127;-71
2021/03/20 08:55:37;;;;;;;1.60;1.08;;;4.70;61.10;;;;;;5057467;28;20060;-71
2021/03/20 08:58:11;;;;;;;4.18;1.08;;;5.00;61.40;;;;;;5059981;28;20845;-71
2021/03/20 09:00:50;;;;;;;2.88;1.27;;;4.90;61.10;;;;;;5056481;28;20028;-74
2021/03/20 09:03:19;;;;;;;3.47;1.08;;;5.10;63.70;;;;;;5049881;28;20020;-71
2021/03/20 09:05:54;;;;;;;4.00;1.20;;;5.00;59.80;;;;;;5052956;28;20036;-72
2021/03/20 09:08:28;;;;;;;4.25;1.25;;;5.00;59.70;;;;;;5048950;28;20032;-76
2021/03/20 09:11:05;;;;;;;3.22;1.02;;;4.90;59.80;;;;;;5055079;28;20041;-72
2021/03/20 09:13:39;;;;;;;1.70;1.10;;;5.00;60.80;;;;;;5056843;28;20020;-80
2021/03/20 09:16:16;;;;;;;2.05;1.05;;;5.20;62.00;;;;;;5043734;28;20040;-71
2021/03/20 09:18:43;;;;;;;5.40;1.42;;;5.30;60.70;;;;;;5057013;28;20028;-72
2021/03/20 09:21:11;;;;;;;2.70;1.08;;;5.50;58.50;;;;;;5053670;28;20115;-72
2021/03/20 09:23:45;;;;;;;1.40;1.00;;;5.60;58.50;;;;;;5057185;28;20433;-71
2021/03/20 09:26:39;;;;;;;1.60;0.80;;;5.60;57.90;;;;;;5058909;28;20029;-71
2021/03/20 09:29:17;;;;;;;1.20;1.10;;;5.50;56.20;;;;;;5063100;28;20048;-70
2021/03/20 09:31:55;;;;;;;1.95;0.90;;;5.40;57.60;;;;;;5053896;28;20493;-71
2021/03/20 09:34:30;;;;;;;2.70;0.95;;;5.50;56.90;;;;;;5055127;28;20029;-69
2021/03/20 09:36:56;;;;;;;2.78;0.90;;;5.60;56.40;;;;;;5053716;28;20127;-70
2021/03/20 09:39:49;;;;;;;2.40;1.10;;;5.70;57.20;;;;;;5063564;28;20048;-70
2021/03/20 09:42:26;;;;;;;2.05;1.00;;;5.60;56.40;;;;;;5062207;28;20384;-75
2021/03/20 09:44:58;;;;;;;1.85;0.82;;;5.60;56.40;;;;;;5055815;28;20541;-72
2021/03/20 09:47:25;;;;;;;;;;;5.80;54.50;;;;;;5064978;28;20115;-73
2021/03/20 09:49:53;;;;;;;1.08;0.88;;;5.80;53.00;;;;;;5060158;28;19909;-72
2021/03/20 09:52:41;;;;;;;1.77;0.77;;;5.70;53.50;;;;;;5063945;28;20055;-72
2021/03/20 09:55:28;;;;;;;2.45;0.80;;;5.80;52.70;;;;;;5058756;28;20499;-73
2021/03/20 09:57:59;;;;;;;2.75;1.08;;;5.80;53.60;;;;;;5062322;28;20040;-73
2021/03/20 10:00:52;;;;;;;5.75;1.58;;;5.90;53.80;;;;;;5061935;28;20032;-71
2021/03/20 10:03:39;;;;;;;2.53;1.13;;;6.10;53.70;;;;;;5059216;28;20029;-74
2021/03/20 10:06:23;;;;;;;4.15;2.08;;;6.20;53.10;;;;;;5065405;28;20044;-72
2021/03/20 10:09:09;;;;;;;2.40;1.10;;;6.10;53.50;;;;;;5060425;28;20052;-71
2021/03/20 10:11:43;;;;;;;1.00;0.88;;;6.20;54.00;;;;;;5068982;28;20107;-72
2021/03/20 10:14:31;;;;;;;1.67;0.68;;;6.20;51.80;;;;;;5064737;28;20237;-72
2021/03/20 10:17:28;;;;;;;3.25;1.30;;;6.00;51.60;;;;;;5049833;28;20033;-75
2021/03/20 10:20:19;;;;;;;1.48;0.80;;;6.10;52.60;;;;;;5053847;28;20056;-72
2021/03/20 10:22:55;;;;;;;2.60;1.00;;;6.10;51.70;;;;;;5056937;28;20558;-71
2021/03/20 10:25:22;;;;;;;1.15;0.98;;;6.00;51.40;;;;;;5053120;28;20064;-71
2021/03/20 10:27:57;;;;;;;2.13;1.13;;;6.00;51.80;;;;;;5053863;28;20055;-71
2021/03/20 10:30:26;;;;;;;2.45;0.95;;;6.10;51.80;;;;;;5050718;28;20021;-71
2021/03/20 10:33:20;;;;;;;0.90;0.70;;;6.20;51.70;;;;;;5064618;28;20029;-71
2021/03/20 10:35:45;;;;;;;2.63;0.80;;;6.40;52.90;;;;;;5055974;28;20481;-72
2021/03/20 10:38:37;;;;;;;1.13;0.80;;;6.80;52.30;;;;;;5059473;28;20049;-73
2021/03/20 10:41:22;;;;;;;1.02;0.55;;;7.10;52.80;;;;;;5042060;28;20043;-72
2021/03/20 10:43:56;;;;;;;2.05;0.95;;;7.40;52.40;;;;;;5063407;28;20028;-72
2021/03/20 10:46:34;;;;;;;2.47;1.30;;;7.40;51.00;;;;;;5049118;28;20087;-72
2021/03/20 10:49:04;;;;;;;3.83;0.90;;;7.40;50.20;;;;;;5046597;28;20112;-72
2021/03/20 10:51:38;;;;;;;4.28;0.90;;;7.50;49.40;;;;;;5058924;28;20090;-72
2021/03/20 10:54:17;;;;;;;1.60;0.70;;;7.80;49.10;;;;;;5063349;28;20025;-72
2021/03/20 10:56:45;;;;;;;1.52;0.95;;;7.90;47.20;;;;;;5055048;28;20670;-71
2021/03/20 10:59:28;;;;;;;2.63;0.93;;;8.20;48.60;;;;;;5058113;28;20375;-72
2021/03/20 11:01:54;;;;;;;2.33;1.05;;;8.30;48.60;;;;;;5060996;28;20025;-73
2021/03/20 11:04:30;;;;;;;1.55;0.90;;;8.10;45.80;;;;;;5060510;28;20021;-73
2021/03/20 11:06:58;;;;;;;4.10;1.05;;;7.90;46.00;;;;;;5059794;28;20028;-72
2021/03/20 11:09:26;;;;;;;1.02;0.93;;;7.90;47.20;;;;;;5055370;28;20039;-72
2021/03/20 11:12:07;;;;;;;1.23;0.90;;;7.40;46.90;;;;;;5044140;28;20029;-72
2021/03/20 11:14:45;;;;;;;1.70;0.90;;;7.40;47.30;;;;;;5056467;28;20056;-71
2021/03/20 11:17:21;;;;;;;1.80;1.00;;;7.50;45.70;;;;;;5037974;28;20672;-70
2021/03/20 11:19:49;;;;;;;6.40;1.00;;;7.70;46.50;;;;;;5060352;28;20024;-70
2021/03/20 11:22:26;;;;;;;3.42;1.02;;;7.90;45.90;;;;;;5061279;28;20597;-70
2021/03/20 11:25:26;;;;;;;1.65;0.95;;;8.00;47.70;;;;;;5042565;28;20033;-71
2021/03/20 11:28:07;;;;;;;2.80;0.90;;;8.20;44.90;;;;;;5054547;28;20035;-70
2021/03/20 11:30:46;;;;;;;1.15;0.80;;;8.10;44.70;;;;;;5066065;28;20044;-71
2021/03/20 11:33:18;;;;;;;1.55;0.80;;;7.90;44.20;;;;;;5062039;28;20104;-72
2021/03/20 11:35:46;;;;;;;1.65;1.00;;;7.80;46.30;;;;;;5066152;28;20507;-71
2021/03/20 11:38:14;;;;;;;1.77;1.10;;;7.70;47.00;;;;;;5063095;28;20119;-71
2021/03/20 11:40:43;;;;;;;2.13;0.82;;;7.70;45.80;;;;;;5052452;28;20035;-71
2021/03/20 11:43:25;;;;;;;4.30;1.00;;;7.50;46.00;;;;;;5060434;28;20021;-72
2021/03/20 11:45:54;;;;;;;1.50;0.77;;;7.40;45.80;;;;;;5050555;28;20040;-70
2021/03/20 11:48:37;;;;;;;2.25;1.02;;;7.30;46.20;;;;;;5054531;28;20032;-71
2021/03/20 11:51:06;;;;;;;1.58;0.75;;;7.50;46.60;;;;;;5057048;28;20530;-71
2021/03/20 11:54:18;;;;;;;1.80;1.10;;;7.70;47.10;;;;;;5061317;28;20451;-70
2021/03/20 11:56:52;;;;;;;1.20;0.73;;;8.30;48.00;;;;;;5058151;28;20024;-71
2021/03/20 11:59:36;;;;;;;1.40;1.00;;;8.90;45.70;;;;;;5049571;28;20036;-72
2021/03/20 12:02:03;;;;;;;3.40;0.95;;;9.70;43.60;;;;;;5055862;28;20039;-72
2021/03/20 12:04:31;;;;;;;1.75;1.00;;;10.00;45.10;;;;;;5049126;28;20057;-73
2021/03/20 12:07:25;;;;;;;2.25;1.05;;;10.50;41.90;;;;;;5060297;28;20031;-71
2021/03/20 12:09:53;;;;;;;3.03;1.58;;;10.40;41.20;;;;;;5051198;28;20029;-73
2021/03/20 12:12:28;;;;;;;5.05;1.20;;;10.00;41.70;;;;;;5054126;28;20492;-72
2021/03/20 12:14:54;;;;;;;2.25;1.13;;;10.20;42.10;;;;;;5039305;28;20044;-72
2021/03/20 12:17:24;;;;;;;1.92;1.20;;;10.70;42.30;;;;;;5050810;28;20024;-70
2021/03/20 12:20:07;;;;;;;2.10;1.10;;;10.80;41.30;;;;;;5057595;28;20020;-72
2021/03/20 12:22:51;;;;;;;1.92;1.20;;;11.10;41.00;;;;;;5052836;28;20270;-71
2021/03/20 12:25:22;;;;;;;3.00;1.10;;;11.30;39.70;;;;;;5059317;28;20441;-76
2021/03/20 12:27:50;;;;;;;1.50;1.10;;;11.00;41.80;;;;;;5054478;28;20132;-71
2021/03/20 12:30:29;;;;;;;2.90;1.38;;;10.40;40.90;;;;;;5048085;28;20047;-72
2021/03/20 12:33:15;;;;;;;1.85;1.15;;;10.00;41.90;;;;;;5045972;28;20090;-69
2021/03/20 12:35:45;;;;;;;1.40;0.93;;;9.90;42.90;;;;;;5060544;28;20048;-73
2021/03/20 12:38:15;;;;;;;1.67;1.08;;;10.10;43.10;;;;;;5050730;28;20027;-68
2021/03/20 12:40:48;;;;;;;1.95;1.10;;;9.60;40.20;;;;;;5064000;28;20023;-71
2021/03/20 12:43:30;;;;;;;1.10;1.00;;;9.80;41.60;;;;;;5044175;28;20021;-70
2021/03/20 12:45:58;;;;;;;5.82;1.40;;;9.70;41.20;;;;;;5045205;28;20055;-70
2021/03/20 12:48:25;;;;;;;2.50;1.30;;;9.90;41.10;;;;;;5044474;28;20040;-69
2021/03/20 12:50:56;;;;;;;1.35;1.00;;;10.00;42.10;;;;;;5050162;28;20566;-71
2021/03/20 12:53:22;;;;;;;;;;;10.30;42.70;;;;;;5065942;28;20064;-70
2021/03/20 12:55:47;;;;;;;1.10;0.90;;;10.60;41.00;;;;;;5061684;28;19982;-70
2021/03/20 12:58:13;;;;;;;1.08;0.98;;;10.40;40.20;;;;;;5057892;28;20029;-71
2021/03/20 13:00:38;;;;;;;2.50;1.00;;;10.20;40.00;;;;;;5055041;28;20478;-71
2021/03/20 13:03:05;;;;;;;1.17;0.90;;;10.00;40.00;;;;;;5056432;28;20020;-71
2021/03/20 13:05:36;;;;;;;2.05;1.10;;;10.00;39.40;;;;;;5056680;28;20030;-70
2021/03/20 13:08:03;;;;;;;1.15;1.02;;;9.90;39.70;;;;;;5061073;28;20028;-70
2021/03/20 13:10:29;;;;;;;3.42;1.00;;;10.00;38.20;;;;;;5063425;28;20036;-70
2021/03/20 13:12:55;;;;;;;1.67;0.90;;;10.10;38.00;;;;;;5059635;28;20097;-70
2021/03/20 13:15:21;;;;;;;1.00;0.90;;;9.80;40.00;;;;;;5045905;28;20360;-70
2021/03/20 13:17:47;;;;;;;1.52;1.05;;;9.80;39.50;;;;;;5067788;28;20564;-71
2021/03/20 13:20:14;;;;;;;1.40;1.10;;;10.00;38.60;;;;;;5050715;28;20028;-70
2021/03/20 13:22:40;;;;;;;4.60;1.10;;;10.00;37.60;;;;;;5054874;28;20104;-70
2021/03/20 13:25:07;;;;;;;3.55;1.08;;;10.30;37.30;;;;;;5052372;28;20096;-71
2021/03/20 13:27:33;;;;;;;1.38;1.17;;;10.60;37.00;;;;;;5045764;28;20028;-71
2021/03/20 13:29:58;;;;;;;1.27;1.08;;;10.90;39.30;;;;;;5054275;28;20029;-71
2021/03/20 13:32:25;;;;;;;2.15;1.00;;;11.00;40.70;;;;;;5040842;28;20028;-71
2021/03/20 13:34:51;;;;;;;3.55;1.20;;;11.00;39.20;;;;;;5041877;28;20377;-71
2021/03/20 13:37:16;;;;;;;2.35;1.10;;;11.20;37.50;;;;;;5055154;28;20029;-71
2021/03/20 13:39:42;;;;;;;3.80;1.23;;;11.40;39.00;;;;;;5047605;28;20022;-71
2021/03/20 13:42:08;;;;;;;4.93;1.40;;;11.30;38.90;;;;;;5060696;28;20028;-71